createdAt,value
2022-11-07T00:00:01.218Z,19.05
2022-11-07T00:02:27.807Z,18.90
2022-11-07T00:04:54.352Z,19.33
2022-11-07T00:07:20.890Z,18.62
2022-11-07T00:09:47.405Z,20.17
2022-11-07T00:12:13.946Z,18.90
2022-11-07T00:14:40.481Z,18.05
2022-11-07T00:17:07.846Z,18.40
2022-11-07T00:19:34.375Z,19.35
2022-11-07T00:22:00.912Z,19.17
2022-11-07T00:24:27.448Z,18.12
2022-11-07T00:26:54.028Z,18.35
2022-11-07T00:29:20.836Z,20.00
2022-11-07T00:31:47.453Z,20.23
2022-11-07T00:34:14.246Z,20.08
2022-11-07T00:36:40.769Z,20.23
2022-11-07T00:39:07.299Z,18.80
2022-11-07T00:41:33.848Z,18.85
2022-11-07T00:44:00.413Z,19.23
2022-11-07T00:46:26.945Z,19.67
2022-11-07T00:48:53.473Z,19.42
2022-11-07T00:51:24.747Z,20.55
2022-11-07T00:53:51.350Z,20.08
2022-11-07T00:56:19.893Z,19.98
2022-11-07T00:58:46.412Z,21.35
2022-11-07T01:01:17.567Z,21.25
2022-11-07T01:04:02.738Z,21.33
2022-11-07T01:06:30.413Z,21.20
2022-11-07T01:08:56.971Z,21.87
2022-11-07T01:11:24.390Z,22.60
2022-11-07T01:13:50.937Z,21.23
2022-11-07T01:16:17.459Z,21.30
2022-11-07T01:18:44.030Z,20.52
2022-11-07T01:21:16.143Z,19.80
2022-11-07T01:23:43.128Z,20.58
2022-11-07T01:26:10.493Z,20.50
2022-11-07T01:28:37.115Z,19.73
2022-11-07T01:31:07.290Z,20.02
2022-11-07T01:33:34.017Z,18.98
2022-11-07T01:36:06.219Z,18.70
2022-11-07T01:38:33.012Z,19.15
2022-11-07T01:41:18.585Z,18.10
2022-11-07T01:43:52.713Z,18.45
2022-11-07T01:46:19.968Z,17.73
2022-11-07T01:48:53.591Z,17.12
2022-11-07T01:51:20.137Z,17.30
2022-11-07T01:53:46.673Z,17.35
2022-11-07T01:56:14.498Z,17.08
2022-11-07T02:01:08.326Z,16.58
2022-11-07T02:03:34.857Z,17.70
2022-11-07T02:06:04.895Z,16.37
2022-11-07T02:08:31.424Z,17.08
2022-11-07T02:11:00.128Z,17.35
2022-11-07T02:13:27.637Z,16.85
2022-11-07T02:15:54.164Z,17.20
2022-11-07T02:18:21.916Z,16.35
2022-11-07T02:23:24.761Z,15.75
2022-11-07T02:25:51.392Z,15.63
2022-11-07T02:28:17.928Z,15.88
2022-11-07T02:30:44.457Z,15.50
2022-11-07T02:33:20.993Z,16.20
2022-11-07T02:35:48.801Z,16.10
2022-11-07T02:41:05.102Z,15.25
2022-11-07T02:43:31.923Z,15.95
2022-11-07T02:45:59.440Z,15.07
2022-11-07T02:48:33.037Z,15.00
2022-11-07T02:50:59.649Z,15.40
2022-11-07T02:53:26.169Z,15.02
2022-11-07T02:55:52.710Z,15.50
2022-11-07T02:58:19.242Z,15.75
2022-11-07T03:00:45.779Z,16.90
2022-11-07T03:03:13.247Z,15.27
2022-11-07T03:05:40.005Z,15.65
2022-11-07T03:08:06.567Z,15.60
2022-11-07T03:10:33.123Z,15.52
2022-11-07T03:12:59.661Z,16.58
2022-11-07T03:15:26.196Z,17.52
2022-11-07T03:17:52.714Z,17.40
2022-11-07T03:20:19.279Z,16.33
2022-11-07T03:22:47.297Z,17.98
2022-11-07T03:25:13.842Z,17.95
2022-11-07T03:27:49.803Z,20.45
2022-11-07T03:30:16.395Z,19.08
2022-11-07T03:32:43.076Z,20.48
2022-11-07T03:35:09.804Z,19.50
2022-11-07T03:37:36.410Z,19.08
2022-11-07T03:40:03.191Z,19.92
2022-11-07T03:42:29.752Z,19.98
2022-11-07T03:44:56.321Z,19.40
2022-11-07T03:47:22.875Z,19.45
2022-11-07T03:49:49.402Z,19.27
2022-11-07T03:52:15.962Z,19.58
2022-11-07T03:54:42.494Z,19.37
2022-11-07T03:57:09.035Z,19.48
2022-11-07T03:59:35.594Z,19.80
2022-11-07T04:02:02.232Z,19.15
2022-11-07T04:04:28.909Z,19.55
2022-11-07T04:06:55.449Z,20.37
2022-11-07T04:09:21.975Z,18.98
2022-11-07T04:12:07.137Z,19.40
2022-11-07T04:14:52.001Z,19.98
2022-11-07T04:17:21.069Z,19.50
2022-11-07T04:19:48.577Z,19.50
2022-11-07T04:22:15.217Z,19.58
2022-11-07T04:24:46.171Z,20.17
2022-11-07T04:27:32.352Z,21.35
2022-11-07T04:29:58.897Z,21.98
2022-11-07T04:32:25.425Z,21.30
2022-11-07T04:34:52.194Z,22.23
2022-11-07T04:37:18.779Z,20.33
2022-11-07T04:39:45.306Z,21.45
2022-11-07T04:42:11.851Z,22.33
2022-11-07T04:44:38.537Z,21.30
2022-11-07T04:47:05.106Z,22.35
2022-11-07T04:49:31.644Z,21.45
2022-11-07T04:51:58.210Z,21.70
2022-11-07T04:54:24.740Z,22.23
2022-11-07T04:56:51.270Z,21.80
2022-11-07T04:59:17.823Z,21.25
2022-11-07T05:01:44.364Z,21.87
2022-11-07T05:04:10.926Z,21.40
2022-11-07T05:06:37.450Z,22.83
2022-11-07T05:09:04.012Z,21.30
2022-11-07T05:11:30.549Z,23.67
2022-11-07T05:13:57.058Z,21.83
2022-11-07T05:16:23.651Z,20.48
2022-11-07T05:18:50.176Z,22.13
2022-11-07T05:21:16.701Z,21.45
2022-11-07T05:23:43.246Z,22.45
2022-11-07T05:26:09.776Z,23.15
2022-11-07T05:28:39.598Z,21.52
2022-11-07T05:31:06.932Z,20.98
2022-11-07T05:33:33.613Z,20.97
2022-11-07T05:36:20.468Z,21.42
2022-11-07T05:38:48.313Z,20.25
2022-11-07T05:43:41.573Z,19.85
2022-11-07T05:46:08.218Z,20.20
2022-11-07T05:48:34.972Z,20.42
2022-11-07T05:51:01.696Z,19.80
2022-11-07T05:53:28.332Z,19.60
2022-11-07T05:55:55.215Z,20.83
2022-11-07T05:58:22.150Z,20.70
2022-11-07T06:00:48.774Z,21.10
2022-11-07T06:03:15.727Z,19.90
2022-11-07T06:05:42.768Z,20.17
2022-11-07T06:08:10.652Z,21.73
2022-11-07T06:10:37.878Z,20.88
2022-11-07T06:13:05.777Z,20.23
2022-11-07T06:15:33.351Z,21.37
2022-11-07T06:18:01.298Z,20.88
2022-11-07T06:20:28.664Z,19.70
2022-11-07T06:23:03.963Z,20.90
2022-11-07T06:25:30.533Z,21.35
2022-11-07T06:28:00.958Z,20.80
2022-11-07T06:30:27.621Z,19.65
2022-11-07T06:32:54.233Z,21.77
2022-11-07T06:35:20.766Z,21.15
2022-11-07T06:37:47.318Z,22.00
2022-11-07T06:40:14.201Z,20.75
2022-11-07T06:42:40.826Z,20.57
2022-11-07T06:45:07.740Z,22.35
2022-11-07T06:47:34.381Z,21.33
2022-11-07T06:50:00.939Z,21.02
2022-11-07T06:52:28.244Z,21.17
2022-11-07T06:54:54.797Z,21.33
2022-11-07T06:57:21.429Z,20.92
2022-11-07T06:59:51.861Z,20.88
2022-11-07T07:02:43.863Z,20.60
2022-11-07T07:05:05.933Z,21.15
2022-11-07T07:07:32.535Z,22.17
2022-11-07T07:09:59.089Z,22.90
2022-11-07T07:12:26.590Z,21.98
2022-11-07T07:14:53.145Z,21.40
2022-11-07T07:17:19.787Z,22.70
2022-11-07T07:19:46.397Z,22.98
2022-11-07T07:22:13.945Z,24.08
2022-11-07T07:24:40.798Z,23.98
2022-11-07T07:27:07.353Z,24.60
2022-11-07T07:29:33.933Z,23.75
2022-11-07T07:32:00.486Z,24.30
2022-11-07T07:34:27.027Z,24.35
2022-11-07T07:36:54.075Z,25.40
2022-11-07T07:39:20.699Z,25.15
2022-11-07T07:41:49.364Z,23.92
2022-11-07T07:44:15.993Z,24.17
2022-11-07T07:46:42.563Z,25.83
2022-11-07T07:49:09.390Z,23.77
2022-11-07T07:51:36.043Z,23.63
2022-11-07T07:54:02.800Z,23.87
2022-11-07T07:56:29.544Z,22.90
2022-11-07T07:58:57.202Z,23.58
2022-11-07T08:01:24.055Z,24.40
2022-11-07T08:04:01.349Z,23.67
2022-11-07T08:06:28.995Z,24.55
2022-11-07T08:08:55.910Z,24.73
2022-11-07T08:11:22.486Z,24.55
2022-11-07T08:13:49.117Z,25.33
2022-11-07T08:16:15.856Z,23.67
2022-11-07T08:18:42.444Z,22.98
2022-11-07T08:21:09.636Z,23.08
2022-11-07T08:23:36.710Z,23.45
2022-11-07T08:26:04.643Z,22.55
2022-11-07T08:28:33.012Z,20.92
2022-11-07T08:30:59.424Z,20.00
2022-11-07T08:33:26.055Z,19.25
2022-11-07T08:35:55.523Z,19.12
2022-11-07T08:38:22.354Z,19.77
2022-11-07T08:40:50.162Z,16.27
2022-11-07T08:43:18.739Z,16.60
2022-11-07T08:45:46.627Z,15.10
2022-11-07T08:48:13.608Z,14.00
2022-11-07T08:50:40.385Z,13.10
2022-11-07T08:53:07.085Z,14.23
2022-11-07T08:55:36.740Z,15.48
2022-11-07T08:58:05.018Z,12.37
2022-11-07T09:00:31.682Z,13.70
2022-11-07T09:03:39.134Z,11.77
2022-11-07T09:05:49.486Z,13.95
2022-11-07T09:08:16.104Z,13.65
2022-11-07T09:10:42.685Z,11.15
2022-11-07T09:13:09.777Z,11.32
2022-11-07T09:15:36.337Z,11.52
2022-11-07T09:18:04.402Z,11.85
2022-11-07T09:20:31.917Z,12.80
2022-11-07T09:22:58.969Z,10.98
2022-11-07T09:25:26.260Z,11.02
2022-11-07T09:27:53.157Z,9.38
2022-11-07T09:30:20.324Z,9.05
2022-11-07T09:32:47.799Z,8.57
2022-11-07T09:37:41.990Z,9.63
2022-11-07T09:40:43.872Z,10.93
2022-11-07T09:43:25.981Z,10.57
2022-11-07T09:46:01.269Z,8.23
2022-11-07T09:48:31.781Z,9.73
2022-11-07T09:50:58.721Z,10.45
2022-11-07T09:53:36.590Z,12.48
2022-11-07T09:56:06.965Z,11.60
2022-11-07T09:58:43.559Z,11.23
2022-11-07T10:01:17.851Z,10.88
2022-11-07T10:04:10.310Z,10.98
2022-11-07T10:06:37.683Z,11.25
2022-11-07T10:09:11.377Z,11.45
2022-11-07T10:11:46.463Z,11.70
2022-11-07T10:14:39.610Z,12.05
2022-11-07T10:17:06.164Z,10.95
2022-11-07T10:19:41.631Z,14.40
2022-11-07T10:22:53.931Z,10.50
2022-11-07T10:25:40.333Z,10.35
2022-11-07T10:28:06.831Z,11.52
2022-11-07T10:30:34.228Z,11.12
2022-11-07T10:33:22.389Z,7.70
2022-11-07T10:35:54.889Z,7.97
2022-11-07T10:38:28.636Z,6.70
2022-11-07T10:40:55.323Z,7.35
2022-11-07T10:43:49.930Z,7.90
2022-11-07T10:46:21.517Z,6.97
2022-11-07T10:48:56.522Z,7.25
2022-11-07T10:51:39.694Z,5.90
2022-11-07T10:54:06.877Z,9.95
2022-11-07T10:57:03.955Z,6.28
2022-11-07T10:59:35.868Z,5.70
2022-11-07T11:02:03.470Z,6.20
2022-11-07T11:04:32.488Z,6.50
2022-11-07T11:07:01.402Z,5.60
2022-11-07T11:09:35.139Z,4.78
2022-11-07T11:12:12.398Z,4.90
2022-11-07T11:14:39.323Z,5.75
2022-11-07T11:17:06.632Z,5.35
2022-11-07T11:19:55.887Z,5.00
2022-11-07T11:22:31.180Z,5.03
2022-11-07T11:25:05.057Z,5.25
2022-11-07T11:27:33.076Z,5.35
2022-11-07T11:30:06.531Z,5.65
2022-11-07T11:32:38.945Z,4.55
2022-11-07T11:35:05.436Z,5.70
2022-11-07T11:37:32.918Z,5.80
2022-11-07T11:39:59.394Z,5.05
2022-11-07T11:42:30.741Z,4.95
2022-11-07T11:44:59.075Z,5.35
2022-11-07T11:47:35.683Z,6.15
2022-11-07T11:50:11.377Z,6.37
2022-11-07T11:52:38.052Z,4.45
2022-11-07T11:55:12.430Z,5.85
2022-11-07T11:57:44.921Z,5.90
2022-11-07T12:00:15.093Z,6.12
2022-11-07T12:03:06.621Z,6.28
2022-11-07T12:06:12.872Z,5.62
2022-11-07T12:08:55.397Z,6.03
2022-11-07T12:11:45.130Z,5.07
2022-11-07T12:14:37.090Z,5.40
2022-11-07T12:17:10.972Z,5.55
2022-11-07T12:19:42.165Z,5.18
2022-11-07T12:22:15.165Z,4.90
2022-11-07T12:24:51.876Z,5.28
2022-11-07T12:27:27.462Z,5.60
2022-11-07T12:30:04.883Z,9.70
2022-11-07T12:32:38.257Z,4.95
2022-11-07T12:35:34.500Z,6.65
2022-11-07T12:38:19.853Z,5.32
2022-11-07T12:40:56.190Z,4.68
2022-11-07T12:43:27.329Z,3.97
2022-11-07T12:46:16.588Z,4.03
2022-11-07T12:49:04.366Z,3.72
2022-11-07T12:51:54.176Z,3.47
2022-11-07T12:54:36.205Z,3.87
2022-11-07T12:57:04.128Z,4.22
2022-11-07T12:59:31.246Z,2.75
2022-11-07T13:02:19.282Z,3.05
2022-11-07T13:04:58.304Z,3.00
2022-11-07T13:07:30.841Z,3.45
2022-11-07T13:10:01.774Z,3.22
2022-11-07T13:12:59.277Z,6.25
2022-11-07T13:15:25.832Z,2.78
2022-11-07T13:17:58.934Z,4.55
2022-11-07T13:20:27.891Z,3.45
2022-11-07T13:22:59.146Z,19.33
2022-11-07T13:25:30.642Z,3.28
2022-11-07T13:27:57.111Z,7.37
2022-11-07T13:30:35.307Z,30.27
2022-11-07T13:33:01.875Z,8.25
2022-11-07T13:35:38.304Z,3.25
2022-11-07T13:38:25.089Z,4.60
2022-11-07T13:41:03.890Z,5.20
2022-11-07T13:43:55.261Z,3.00
2022-11-07T13:46:25.963Z,2.95
2022-11-07T13:49:02.781Z,3.20
2022-11-07T13:51:36.106Z,2.67
2022-11-07T13:54:10.523Z,3.08
2022-11-07T13:56:46.569Z,3.15
2022-11-07T13:59:42.801Z,2.83
2022-11-07T14:02:26.022Z,3.22
2022-11-07T14:07:43.040Z,3.47
2022-11-07T14:10:39.832Z,3.00
2022-11-07T14:13:14.514Z,3.50
2022-11-07T14:15:46.351Z,3.53
2022-11-07T14:18:15.650Z,2.60
2022-11-07T14:20:53.670Z,3.10
2022-11-07T14:23:24.430Z,3.78
2022-11-07T14:26:04.121Z,3.20
2022-11-07T14:28:38.183Z,2.45
2022-11-07T14:31:06.308Z,2.62
2022-11-07T14:33:32.908Z,2.75
2022-11-07T14:36:04.171Z,2.92
2022-11-07T14:38:30.735Z,3.00
2022-11-07T14:40:59.705Z,2.92
2022-11-07T14:43:26.494Z,4.15
2022-11-07T14:46:13.129Z,5.53
2022-11-07T14:48:41.372Z,5.75
2022-11-07T14:51:12.720Z,6.50
2022-11-07T14:54:03.734Z,6.32
2022-11-07T14:56:35.576Z,5.47
2022-11-07T14:59:02.337Z,5.62
2022-11-07T15:01:30.964Z,6.40
2022-11-07T15:04:03.156Z,6.10
2022-11-07T15:06:33.403Z,5.70
2022-11-07T15:09:05.508Z,7.30
2022-11-07T15:11:36.893Z,6.32
2022-11-07T15:14:05.559Z,6.15
2022-11-07T15:16:34.179Z,5.95
2022-11-07T15:19:03.480Z,5.47
2022-11-07T15:21:31.047Z,7.00
2022-11-07T15:23:58.457Z,6.20
2022-11-07T15:26:30.105Z,3.75
2022-11-07T15:29:01.158Z,4.47
2022-11-07T15:31:29.175Z,3.80
2022-11-07T15:33:57.290Z,3.67
2022-11-07T15:36:23.867Z,3.30
2022-11-07T15:38:50.660Z,2.70
2022-11-07T15:41:17.262Z,3.80
2022-11-07T15:43:43.983Z,3.25
2022-11-07T15:46:35.932Z,3.50
2022-11-07T15:49:02.641Z,3.20
2022-11-07T15:51:29.890Z,2.75
2022-11-07T15:53:56.461Z,3.72
2022-11-07T15:56:23.661Z,3.03
2022-11-07T15:58:51.007Z,3.03
2022-11-07T16:01:17.998Z,3.17
2022-11-07T16:03:44.682Z,3.35
2022-11-07T16:06:31.503Z,3.75
2022-11-07T16:08:58.226Z,4.15
2022-11-07T16:11:24.799Z,4.12
2022-11-07T16:13:59.327Z,4.32
2022-11-07T16:16:35.634Z,4.37
2022-11-07T16:19:02.276Z,3.97
2022-11-07T16:21:28.819Z,4.30
2022-11-07T16:23:55.375Z,4.93
2022-11-07T16:26:27.482Z,6.07
2022-11-07T16:28:54.082Z,4.43
2022-11-07T16:31:20.641Z,4.40
2022-11-07T16:33:47.202Z,3.97
2022-11-07T16:36:25.238Z,3.85
2022-11-07T16:38:52.207Z,3.85
2022-11-07T16:41:19.024Z,3.92
2022-11-07T16:43:46.476Z,3.72
2022-11-07T16:46:17.045Z,4.95
2022-11-07T16:48:43.706Z,3.90
2022-11-07T16:51:14.372Z,4.65
2022-11-07T16:53:40.930Z,4.32
2022-11-07T16:56:25.519Z,4.65
2022-11-07T16:58:52.918Z,4.00
2022-11-07T17:01:19.578Z,4.85
2022-11-07T17:03:46.173Z,4.87
2022-11-07T17:06:27.162Z,4.97
2022-11-07T17:08:55.274Z,4.50
2022-11-07T17:11:24.886Z,4.12
2022-11-07T17:13:51.413Z,4.62
2022-11-07T17:16:25.777Z,5.32
2022-11-07T17:18:52.524Z,5.40
2022-11-07T17:21:28.752Z,4.75
2022-11-07T17:23:56.494Z,4.72
2022-11-07T17:28:50.622Z,4.55
2022-11-07T17:31:17.211Z,4.68
2022-11-07T17:33:43.813Z,5.05
2022-11-07T17:36:24.763Z,4.78
2022-11-07T17:38:51.947Z,5.70
2022-11-07T17:41:18.527Z,5.80
2022-11-07T17:43:45.700Z,6.07
2022-11-07T17:46:20.878Z,6.12
2022-11-07T17:48:48.059Z,5.72
2022-11-07T17:51:16.741Z,6.30
2022-11-07T17:53:43.528Z,5.87
2022-11-07T17:56:18.560Z,6.35
2022-11-07T17:58:46.055Z,5.32
2022-11-07T18:01:14.827Z,5.75
2022-11-07T18:03:41.428Z,5.72
2022-11-07T18:06:08.004Z,6.00
2022-11-07T18:08:51.833Z,6.28
2022-11-07T18:11:20.445Z,5.57
2022-11-07T18:13:49.274Z,5.15
2022-11-07T18:16:19.614Z,6.05
2022-11-07T18:18:46.174Z,5.55
2022-11-07T18:21:12.981Z,5.90
2022-11-07T18:23:40.602Z,4.60
2022-11-07T18:26:11.679Z,5.43
2022-11-07T18:28:39.036Z,5.80
2022-11-07T18:31:09.954Z,6.00
2022-11-07T18:33:36.508Z,6.43
2022-11-07T18:36:04.985Z,5.40
2022-11-07T18:38:31.656Z,6.32
2022-11-07T18:40:59.215Z,5.85
2022-11-07T18:43:25.949Z,6.07
2022-11-07T18:45:53.249Z,5.82
2022-11-07T18:48:19.795Z,5.55
2022-11-07T18:50:46.366Z,6.93
2022-11-07T18:53:12.933Z,5.95
2022-11-07T18:55:39.473Z,6.95
2022-11-07T18:58:06.006Z,6.60
2022-11-07T19:00:32.582Z,6.18
2022-11-07T19:02:59.110Z,7.00
2022-11-07T19:05:25.669Z,6.62
2022-11-07T19:07:52.194Z,6.50
2022-11-07T19:10:19.748Z,6.72
2022-11-07T19:12:46.684Z,7.35
2022-11-07T19:15:13.604Z,7.83
2022-11-07T19:17:40.173Z,8.30
2022-11-07T19:20:07.123Z,7.87
2022-11-07T19:22:33.674Z,10.17
2022-11-07T19:25:00.232Z,8.82
2022-11-07T19:27:26.987Z,8.50
2022-11-07T19:29:53.603Z,8.57
2022-11-07T19:32:20.206Z,8.30
2022-11-07T19:34:46.784Z,9.10
2022-11-07T19:37:13.315Z,9.05
2022-11-07T19:39:40.246Z,8.73
2022-11-07T19:42:06.857Z,9.50
2022-11-07T19:44:34.461Z,8.82
2022-11-07T19:47:01.000Z,9.07
2022-11-07T19:49:27.522Z,9.32
2022-11-07T19:51:54.119Z,8.88
2022-11-07T19:54:20.652Z,9.45
2022-11-07T19:56:47.203Z,9.77
2022-11-07T19:59:13.731Z,11.57
2022-11-07T20:01:40.438Z,10.48
2022-11-07T20:04:08.812Z,10.80
2022-11-07T20:06:36.843Z,11.18
2022-11-07T20:09:07.537Z,10.10
2022-11-07T20:11:34.092Z,10.77
2022-11-07T20:14:03.745Z,11.00
2022-11-07T20:16:30.910Z,10.98
2022-11-07T20:18:57.663Z,12.73
2022-11-07T20:21:24.556Z,11.73
2022-11-07T20:23:53.731Z,11.53
2022-11-07T20:26:21.497Z,11.65
2022-11-07T20:31:15.672Z,12.18
2022-11-07T20:33:42.346Z,12.27
2022-11-07T20:36:10.749Z,11.15
2022-11-07T20:38:37.374Z,10.52
2022-11-07T20:41:04.162Z,8.55
2022-11-07T20:43:30.825Z,9.65
2022-11-07T20:45:57.356Z,9.10
2022-11-07T20:48:23.900Z,8.98
2022-11-07T20:50:50.445Z,8.65
2022-11-07T20:53:17.305Z,8.68
2022-11-07T20:55:44.216Z,9.43
2022-11-07T20:58:11.164Z,8.43
2022-11-07T21:00:38.667Z,9.30
2022-11-07T21:03:05.272Z,8.73
2022-11-07T21:05:31.878Z,8.73
2022-11-07T21:07:58.470Z,8.20
2022-11-07T21:10:25.252Z,8.43
2022-11-07T21:12:51.996Z,9.00
2022-11-07T21:15:18.571Z,9.65
2022-11-07T21:17:45.200Z,8.77
2022-11-07T21:20:11.908Z,9.10
2022-11-07T21:22:38.471Z,9.77
2022-11-07T21:25:05.742Z,8.88
2022-11-07T21:27:36.209Z,11.77
2022-11-07T21:30:06.231Z,12.23
2022-11-07T21:32:33.272Z,11.32
2022-11-07T21:34:59.857Z,11.48
2022-11-07T21:37:26.452Z,11.55
2022-11-07T21:39:53.086Z,12.85
2022-11-07T21:42:19.761Z,11.52
2022-11-07T21:44:46.341Z,13.45
2022-11-07T21:47:12.905Z,13.15
2022-11-07T21:49:39.717Z,13.23
2022-11-07T21:52:06.263Z,13.85
2022-11-07T21:54:32.804Z,13.18
2022-11-07T21:57:00.272Z,13.05
2022-11-07T21:59:26.928Z,12.43
2022-11-07T22:01:54.595Z,13.57
2022-11-07T22:06:47.619Z,12.90
2022-11-07T22:09:16.065Z,14.57
2022-11-07T22:11:42.992Z,13.38
2022-11-07T22:14:12.595Z,12.83
2022-11-07T22:16:39.197Z,12.48
2022-11-07T22:19:11.230Z,12.80
2022-11-07T22:21:39.027Z,11.95
2022-11-07T22:24:05.797Z,12.85
2022-11-07T22:26:32.335Z,13.18
2022-11-07T22:28:58.890Z,12.70
2022-11-07T22:31:26.928Z,12.63
2022-11-07T22:33:53.487Z,12.95
2022-11-07T22:36:20.056Z,13.07
2022-11-07T22:38:46.596Z,13.05
2022-11-07T22:41:20.676Z,13.70
2022-11-07T22:43:47.474Z,12.80
2022-11-07T22:46:16.469Z,13.35
2022-11-07T22:48:43.296Z,13.32
2022-11-07T22:51:17.521Z,12.57
2022-11-07T22:53:44.065Z,11.20
2022-11-07T22:56:19.816Z,10.43
2022-11-07T22:58:46.865Z,11.63
2022-11-07T23:01:20.068Z,10.60
2022-11-07T23:03:46.859Z,9.85
2022-11-07T23:06:13.426Z,10.95
2022-11-07T23:08:39.963Z,10.57
2022-11-07T23:11:44.156Z,10.55
2022-11-07T23:14:00.524Z,9.73
2022-11-07T23:16:37.638Z,10.30
2022-11-07T23:19:06.706Z,10.52
2022-11-07T23:21:33.240Z,10.02
2022-11-07T23:24:00.050Z,10.82
2022-11-07T23:26:27.197Z,11.45
2022-11-07T23:28:53.805Z,10.32
2022-11-07T23:31:20.322Z,10.70
2022-11-07T23:33:46.917Z,10.02
2022-11-07T23:36:14.734Z,9.85
2022-11-07T23:41:08.506Z,10.00
2022-11-07T23:43:35.092Z,11.20
2022-11-07T23:46:21.650Z,14.45
2022-11-07T23:49:11.897Z,14.75
2022-11-07T23:51:40.824Z,14.82
2022-11-07T23:54:25.882Z,14.52
2022-11-07T23:56:52.401Z,15.93
2022-11-07T23:59:37.546Z,13.93
